Auburn, NY

11:40 PM EDT on August 27, 2014 (GMT -0400)
Syracuse Hancock International | Change Station
CLOSE
Current Station
Airport
Location: Syracuse,
Elevation: 420 ft
Nearby Weather Stations

Elev 420 ft 43.11 °N, 76.10 °W | Updated 46 minutes ago

Partly Cloudy
Partly Cloudy
64 °F
Feels Like 64 °F
N
7
Wind Variable Wind from West

Today
High -- | Low -- °F
--% Chance of Precip.
Yesterday
High -- | Low -- °F
Precip. -- in
6:25 AM 7:49 PM
Waxing Crescent, 6% visible
Pressure 29.99 in
Visibility 10.0 miles
Clouds Few 14000 ft
Dew Point 59 °F
Humidity 84%
Rainfall 0.00 in
Snow Depth Not available.
UV 0 out of 12
Pollen 8.50 out of 12
Ozone Good
PM2.5 Good
Flu Activity Not available.
METAR KSYR 280254Z 26006KT 10SM FEW140 18/15 A3000 RMK AO2 SLP153 T01780150 51005 $

More Conditions Fewer Conditions

Pressure 29.99 in
Visibility 10.0 miles
Clouds Few 14000 ft
Dew Point 59 °F
Humidity 84%
Rainfall 0.00 in
Snow Depth Not available.
UV 0 out of 12
Pollen 8.50 out of 12
Ozone Good
PM2.5 Good
Flu Activity Not available.
METAR KSYR 280254Z 26006KT 10SM FEW140 18/15 A3000 RMK AO2 SLP153 T01780150 51005 $

More Conditions Fewer Conditions

10-Day Weather Forecast

Almanac

Astronomy

Aug. 27, 2014 Rise Set
Actual Time 6:25 AM EDT 7:49 PM EDT
Civil Twilight 5:55 AM EDT 8:18 PM EDT
Nautical Twilight 5:20 AM EDT 8:54 PM EDT
Astronomical Twilight 4:42 AM EDT 9:31 PM EDT
Moon 8:23 AM EDT (8/27) 8:35 PM EDT (8/27)
Length of Visible Light 14h 22m
Length of Day
13h 23m
Tomorrow will be 2m 46s shorter.
Waxing Crescent, 6% of the Moon is Illuminated
Today
Waxing Crescent
Sep 2
First Quarter
Sep 8
Full
Sep 15
Last Quarter
Sep 24
New

Today's Extremes

State Highs State Lows

Community

WunderPhotos

Upload Photos

1,747,894 photos uploaded!

Nearby

Air Quality

  Air Quality AQ Index Pollutant
Yesterday Good
OZONE
Yesterday Good
PM2.5
Current Good
OZONE
Current Good
PM2.5
Wednesday Good
OZONE
Wednesday Good
PM2.5
Thursday Good
OZONE
Thursday Good
PM2.5

Snow Depth

Station Depth Elevation
No new snow has been reported.

Earthquake Activity

City Distance Mag. Time & Date
No recent earthquake activity has been reported nearby.
Minimum magnitude displayed is 2.5.

Coastal Water Temperatures

Place Temperature
No Stations Reporting

Nearby Weather Stations